Terminal Aerodrome Forecast
Issued by NWS North Platte, NE

Home | Current Version | Previous Version | Text Only | Print | Product List | Glossary On
Versions: 1 2 3 4 5 6 7 8 9 10 11 12 13 14
119
FTUS43 KLBF 202320
TAFVTN
TAF
KVTN 202320Z 2100/2124 16012G20KT P6SM SCT120
     FM210200 14006KT P6SM SCT120
     FM210900 VRB05KT P6SM VCTS BKN080CB BKN250
     FM211200 VRB03KT P6SM SCT120 BKN250
     FM211800 32006KT P6SM SCT200=

USA.gov is the U.S. government's official web portal to all federal, state and local government web resources and services.